x

Ilm3 - 27 Miles Se Of Wrightsville Beach, Nc (41037) Weather Station

8:08pm - Sun 19th Feb 2017 All times are EST. -5 hours from GMT.

  • Wind
    4mph, 7mph gusts
  • Sea Temp 59°f
  • Air Temp 59°f
  • Sea Pressure 1015.4mb
  • Ilm3 - 27 Miles Se Of Wrightsville Beach, Nc
  • Ilm3 - 27 Miles Se Of Wrightsville Beach, Nc

More Historic Weather Station data

Upgrade to MSW Pro to gain access to the past 30 days of data for over 8000 Wavebouys and Weather Stations around the globe.

Join Pro

Comparision Forecast

View Surf forecast
   
Sun 02/19 8:08pm 4 7 mph 1015.4mb 59f 59f
7:08pm 4 7 mph 1014.9mb 59f 59f
6:08pm 7 9 mph 1014.5mb 59f 59f
5:08pm 9 13 mph 1013.5mb 60f 60f
4:08pm 9 13 mph 1012.9mb 61f 60f
3:08pm 13 16 mph 1012.6mb 61f 60f
2:08pm 7 11 mph 1013.3mb 61f 60f
1:08pm 7 9 mph 1013.1mb 61f 59f
12:08pm 11 16 mph 1014.1mb 61f 58f
11:08am 16 22 mph 1014.4mb 61f 57f
10:08am 18 25 mph 1014.4mb 60f 57f
9:08am 20 27 mph 1014mb 60f 58f
8:08am 9 13 mph 1013.8mb 60f 58f
7:08am 7 11 mph 1013.5mb 60f 58f
6:08am 11 16 mph 1012.7mb 61f 58f
5:08am 11 13 mph 1011.4mb 61f 58f
4:08am 9 13 mph 1012mb 62f 59f
3:08am 11 13 mph 1011.8mb 62f 59f
2:08am 11 16 mph 1012mb 63f 61f
12:08am 13 18 mph 1013.2mb 62f 63f
Sat 02/18 11:08pm 11 16 mph 1013.7mb 62f 62f
10:08pm 11 16 mph 1013.4mb 61f 62f
9:08pm 9 13 mph 1013.2mb 61f 62f
8:08pm 11 16 mph 1013.4mb 61f 62f
7:08pm 13 18 mph 1014.3mb 60f 62f
6:08pm 13 16 mph 1013.9mb 60f 61f
5:08pm 11 16 mph 1013.9mb 61f 61f
4:08pm 13 18 mph 1014.1mb 61f 61f
3:08pm 13 18 mph 1014.3mb 61f 62f
2:08pm 13 20 mph 1014.2mb 61f 62f
1:08pm 16 22 mph 1014.2mb 61f 61f
12:08pm 16 22 mph 1014.7mb 61f 61f
11:08am 18 25 mph 1015.9mb 61f 60f
10:08am 13 20 mph 1016.1mb 61f 60f
9:08am 16 22 mph 1016mb 61f 60f
8:08am 11 18 mph 1015.3mb 61f 60f
7:08am 16 22 mph 1015.4mb 61f 59f
6:08am 16 20 mph 1014.8mb 61f 59f
5:08am 16 22 mph 1014.4mb 61f 59f
4:08am 16 22 mph 1014mb 61f 59f
3:08am 16 22 mph 1014mb 61f 60f
2:08am 18 25 mph 1013.6mb 61f 60f
1:08am 20 27 mph 1013.8mb 61f 59f
12:08am 18 25 mph 1014.6mb 62f 60f
Fri 02/17 11:08pm 16 22 mph 1014.2mb 61f 60f
10:08pm 11 16 mph 1014.5mb 61f 59f
9:08pm 11 13 mph 1014.5mb 61f 59f
8:08pm 11 16 mph 1014.6mb 61f 59f
7:08pm 16 22 mph 1014.4mb 61f 58f
6:08pm 16 22 mph 1014mb 62f 58f
5:08pm 16 20 mph 1013.4mb 62f 59f
4:08pm 9 16 mph 1013.3mb 62f 60f
3:08pm 9 13 mph 1014.1mb 63f 59f
2:08pm 11 13 mph 1015.5mb 62f 58f
1:08pm 7 11 mph 1015.9mb 62f 56f
12:08pm 7 11 mph 1016.8mb 62f 55f
11:08am 4 9 mph 1017.6mb 62f 54f
10:08am 2 7 mph 1017.5mb 62f 54f
9:08am 7 13 mph 1017.5mb 61f 53f
8:08am 7 11 mph 1016.6mb 61f 52f
7:08am 7 11 mph 1016.2mb 60f 51f
6:08am 9 16 mph 1016mb 61f 51f
5:08am 9 13 mph 1015.3mb 61f 51f
4:08am 11 16 mph 1014.9mb 61f 52f
3:08am 11 18 mph 1014.8mb 61f 52f
2:08am 13 20 mph 1014.9mb 61f 52f
1:08am 18 27 mph 1014mb 62f 53f
12:08am 22 29 mph 1013.6mb 62f 54f
Thu 02/16 11:08pm 18 27 mph 1014mb 62f 55f
10:08pm 18 25 mph 1013.4mb 62f 55f
9:08pm 16 22 mph 1013mb 61f 55f
8:08pm 16 25 mph 1012.8mb 61f 55f
7:08pm 18 27 mph 1012.4mb 61f 56f
6:08pm 22 31 mph 1011.6mb 61f 56f
5:08pm 20 31 mph 1010.1mb 61f 57f
4:08pm 20 29 mph 1009.3mb 61f 56f
3:08pm 20 27 mph 1009mb 61f 55f
2:08pm 18 27 mph 1009.4mb 61f 52f
1:08pm 16 22 mph 1010.5mb 62f 50f
12:08pm 13 22 mph 1011.4mb 61f 48f
11:08am 16 22 mph 1011.9mb 61f 48f
10:08am 13 25 mph 1012.3mb 61f 47f
9:08am 18 25 mph 1011.8mb 61f 48f
8:08am 20 27 mph 1011.1mb 61f 48f
7:08am 16 25 mph 1010.4mb 61f 48f
6:08am 18 27 mph 1009.6mb 61f 49f
5:08am 20 27 mph 1008.8mb 61f 49f
4:08am 18 29 mph 1008.1mb 61f 50f
3:08am 20 29 mph 1007.6mb 61f 51f